Time;durP1;ratioP1;P1;durP2;ratioP2;P2;SDS_P1;SDS_P2;PMS_P1;PMS_P2;Temp;Humidity;BMP_temperature;BMP_pressure;BME280_temperature;BME280_humidity;BME280_pressure;Samples;Min_cycle;Max_cycle;Signal;HPM_P1;HPM_P2
2022/05/02 00:01:27;;;;;;;22.40;12.25;;;8.80;99.90;;;;;;5030951;28;20324;-62
2022/05/02 00:03:52;;;;;;;21.90;12.00;;;8.90;99.90;;;;;;5030797;28;20167;-62
2022/05/02 00:06:18;;;;;;;21.38;11.90;;;8.90;99.90;;;;;;5031014;28;20025;-62
2022/05/02 00:08:44;;;;;;;20.88;12.98;;;8.90;99.90;;;;;;5030695;28;20385;-65
2022/05/02 00:11:09;;;;;;;21.08;12.23;;;8.80;99.90;;;;;;5029612;28;20029;-62
2022/05/02 00:13:35;;;;;;;23.95;13.35;;;8.80;99.90;;;;;;5070990;22;20488;-62
2022/05/02 00:16:00;;;;;;;22.85;12.13;;;8.80;99.90;;;;;;5069832;28;20531;-63
2022/05/02 00:18:28;;;;;;;21.65;12.30;;;8.70;99.90;;;;;;5071788;28;20025;-62
2022/05/02 00:20:54;;;;;;;21.05;11.50;;;8.70;99.90;;;;;;5071424;28;20039;-61
2022/05/02 00:23:20;;;;;;;22.67;12.35;;;8.70;99.90;;;;;;5071604;28;20025;-61
2022/05/02 00:25:46;;;;;;;20.08;11.43;;;8.60;99.90;;;;;;5071567;28;20025;-63
2022/05/02 00:28:15;;;;;;;21.80;13.18;;;8.60;99.90;;;;;;5071143;28;20032;-60
2022/05/02 00:30:41;;;;;;;22.23;12.10;;;8.50;99.90;;;;;;5071435;28;20067;-63
2022/05/02 00:33:06;;;;;;;38.25;14.10;;;8.50;99.90;;;;;;5071362;28;20078;-62
2022/05/02 00:35:33;;;;;;;23.45;12.07;;;8.50;99.90;;;;;;5070118;28;20032;-64
2022/05/02 00:37:58;;;;;;;20.85;13.05;;;8.40;99.90;;;;;;5071340;28;20472;-63
2022/05/02 00:40:24;;;;;;;23.42;12.85;;;8.40;99.90;;;;;;5071388;28;20028;-63
2022/05/02 00:42:50;;;;;;;20.80;12.77;;;8.30;99.90;;;;;;5071430;28;20143;-61
2022/05/02 00:45:18;;;;;;;23.58;13.45;;;8.30;99.90;;;;;;5070423;28;20499;-63
2022/05/02 00:47:55;;;;;;;19.15;12.02;;;8.30;99.90;;;;;;5071464;28;20052;-62
2022/05/02 00:50:30;;;;;;;21.42;12.82;;;8.20;99.90;;;;;;5070057;28;20025;-63
2022/05/02 00:52:56;;;;;;;21.65;12.25;;;8.20;99.90;;;;;;5071179;28;20017;-64
2022/05/02 00:55:22;;;;;;;22.80;15.07;;;8.10;99.90;;;;;;5070072;28;20021;-62
2022/05/02 00:57:47;;;;;;;21.27;12.55;;;8.10;99.90;;;;;;5071471;28;20370;-63
2022/05/02 01:00:13;;;;;;;22.45;12.23;;;8.10;99.90;;;;;;5071250;28;20064;-63
2022/05/02 01:02:39;;;;;;;24.85;12.75;;;8.10;99.90;;;;;;5071185;28;20020;-61
2022/05/02 01:05:05;;;;;;;20.38;12.30;;;8.10;99.90;;;;;;5071606;28;20046;-62
2022/05/02 01:07:30;;;;;;;22.52;12.43;;;8.00;99.90;;;;;;5073344;28;20032;-62
2022/05/02 01:09:57;;;;;;;24.10;13.02;;;8.10;99.90;;;;;;5073262;28;20070;-63
2022/05/02 01:12:24;;;;;;;22.67;12.85;;;8.10;99.90;;;;;;5074726;28;20032;-62
2022/05/02 01:14:53;;;;;;;20.40;12.93;;;8.10;99.90;;;;;;5073331;28;20500;-61
2022/05/02 01:17:19;;;;;;;19.95;11.20;;;8.10;99.90;;;;;;5074997;28;20087;-63
2022/05/02 01:19:45;;;;;;;20.83;12.10;;;8.00;99.90;;;;;;5074801;28;20029;-63
2022/05/02 01:22:10;;;;;;;22.58;13.05;;;8.00;99.90;;;;;;5074687;28;20033;-63
2022/05/02 01:24:44;;;;;;;23.92;13.20;;;8.00;99.90;;;;;;5074892;28;20021;-63
2022/05/02 01:27:11;;;;;;;21.15;12.80;;;8.00;99.90;;;;;;5074398;28;20024;-62
2022/05/02 01:29:39;;;;;;;21.10;12.75;;;7.90;99.90;;;;;;5073918;28;20017;-62
2022/05/02 01:32:06;;;;;;;22.55;12.75;;;7.90;99.90;;;;;;5074446;28;20515;-61
2022/05/02 01:34:36;;;;;;;21.90;12.27;;;8.00;99.90;;;;;;5074237;28;20081;-63
2022/05/02 01:37:03;;;;;;;21.95;12.85;;;8.00;99.90;;;;;;5074317;28;20039;-63
2022/05/02 01:39:29;;;;;;;20.70;12.85;;;7.90;99.90;;;;;;5072882;28;20391;-62
2022/05/02 01:41:58;;;;;;;21.88;12.63;;;7.90;99.90;;;;;;5073998;28;20501;-63
2022/05/02 01:44:24;;;;;;;22.33;12.95;;;7.90;99.90;;;;;;5072698;28;20035;-64
2022/05/02 01:46:51;;;;;;;22.90;12.35;;;7.90;99.90;;;;;;5074057;28;20028;-61
2022/05/02 01:49:16;;;;;;;24.35;14.63;;;7.90;99.90;;;;;;5074159;28;20436;-62
2022/05/02 01:51:42;;;;;;;23.27;13.13;;;7.80;99.90;;;;;;5074066;28;20104;-62
2022/05/02 01:54:08;;;;;;;21.55;12.45;;;7.80;99.90;;;;;;5073822;28;20031;-63
2022/05/02 01:56:33;;;;;;;22.38;12.43;;;7.80;99.90;;;;;;5072897;28;20416;-62
2022/05/02 01:58:59;;;;;;;23.98;13.13;;;7.80;99.90;;;;;;5072639;28;20395;-63
2022/05/02 02:01:24;;;;;;;20.98;11.90;;;7.80;99.90;;;;;;5074086;28;20028;-62
2022/05/02 02:03:50;;;;;;;21.52;12.63;;;7.70;99.90;;;;;;5074140;28;20078;-63
2022/05/02 02:06:16;;;;;;;24.10;11.77;;;7.70;99.90;;;;;;5073974;28;20020;-61
2022/05/02 02:08:41;;;;;;;21.95;12.23;;;7.70;99.90;;;;;;5074260;28;20029;-62
2022/05/02 02:11:09;;;;;;;21.95;12.80;;;7.60;99.90;;;;;;5073735;28;20032;-62
2022/05/02 02:13:36;;;;;;;22.23;12.70;;;7.60;99.90;;;;;;5073463;28;20028;-62
2022/05/02 02:16:06;;;;;;;23.00;12.18;;;7.60;99.90;;;;;;5073480;28;20028;-61
2022/05/02 02:18:32;;;;;;;22.95;12.23;;;7.60;99.90;;;;;;5072976;28;20166;-63
2022/05/02 02:20:57;;;;;;;21.65;11.63;;;7.60;99.90;;;;;;5073410;28;20086;-63
2022/05/02 02:23:23;;;;;;;21.08;11.68;;;7.60;99.90;;;;;;5073421;28;20029;-62
2022/05/02 02:25:50;;;;;;;22.58;11.70;;;7.60;99.90;;;;;;5072253;28;20020;-63
2022/05/02 02:28:16;;;;;;;19.80;11.07;;;7.70;99.90;;;;;;5073412;28;20401;-60
2022/05/02 02:30:45;;;;;;;21.35;12.07;;;7.60;99.90;;;;;;5073180;28;20017;-64
2022/05/02 02:33:11;;;;;;;20.75;11.73;;;7.60;99.90;;;;;;5073201;28;20025;-62
2022/05/02 02:35:37;;;;;;;20.55;11.65;;;7.60;99.90;;;;;;5073033;28;20032;-62
2022/05/02 02:38:03;;;;;;;20.85;11.00;;;7.60;99.90;;;;;;5073310;28;20499;-60
2022/05/02 02:40:31;;;;;;;20.80;11.48;;;7.60;99.90;;;;;;5071779;28;20033;-61
2022/05/02 02:42:56;;;;;;;21.83;11.38;;;7.60;99.90;;;;;;5073016;28;20024;-61
2022/05/02 02:45:22;;;;;;;21.08;11.30;;;7.60;99.90;;;;;;5071583;28;20077;-62
2022/05/02 02:47:48;;;;;;;21.50;11.60;;;7.60;99.90;;;;;;5071664;28;20024;-61
2022/05/02 02:50:13;;;;;;;20.33;11.98;;;7.50;99.90;;;;;;5071631;28;20674;-63
2022/05/02 02:52:39;;;;;;;22.85;13.02;;;7.50;99.90;;;;;;5072859;28;20028;-61
2022/05/02 02:55:05;;;;;;;21.42;12.07;;;7.60;99.90;;;;;;5071752;28;20020;-62
2022/05/02 02:57:31;;;;;;;20.80;11.88;;;7.50;99.90;;;;;;5072777;28;20118;-63
2022/05/02 02:59:57;;;;;;;21.10;12.05;;;7.50;99.90;;;;;;5072540;28;20047;-63
2022/05/02 03:02:23;;;;;;;22.48;12.40;;;7.50;99.90;;;;;;5072833;28;20324;-62
2022/05/02 03:07:33;;;;;;;22.05;12.38;;;7.50;99.90;;;;;;5072740;28;20407;-62
2022/05/02 03:09:59;;;;;;;20.85;12.55;;;7.60;99.90;;;;;;5072368;28;20020;-63
2022/05/02 03:12:25;;;;;;;20.20;11.93;;;7.60;99.90;;;;;;5072280;28;20078;-64
2022/05/02 03:14:51;;;;;;;20.33;11.30;;;7.60;99.90;;;;;;5070893;28;20029;-63
2022/05/02 03:17:17;;;;;;;24.45;13.02;;;7.60;99.90;;;;;;5072463;28;20108;-63
2022/05/02 03:19:42;;;;;;;21.98;11.77;;;7.70;99.90;;;;;;5072128;28;20106;-63
2022/05/02 03:22:08;;;;;;;19.27;11.85;;;7.70;99.90;;;;;;5070908;28;20029;-63
2022/05/02 03:24:33;;;;;;;24.88;11.75;;;7.70;99.90;;;;;;5072132;28;20032;-63
2022/05/02 03:26:59;;;;;;;21.83;11.90;;;7.70;99.90;;;;;;5070928;28;20070;-60
2022/05/02 03:29:25;;;;;;;20.95;11.23;;;7.80;99.90;;;;;;5070729;28;20447;-61
2022/05/02 03:31:51;;;;;;;22.00;11.73;;;7.80;99.90;;;;;;5070648;28;20024;-61
2022/05/02 03:34:16;;;;;;;21.83;11.85;;;7.70;99.90;;;;;;5072058;28;20070;-62
2022/05/02 03:36:42;;;;;;;21.55;11.30;;;7.70;99.90;;;;;;5070917;28;20455;-61
2022/05/02 03:39:08;;;;;;;23.30;12.25;;;7.70;99.90;;;;;;5070582;28;20025;-62
2022/05/02 03:41:33;;;;;;;21.38;12.05;;;7.70;99.90;;;;;;5071939;28;20108;-63
2022/05/02 03:43:59;;;;;;;22.42;11.88;;;7.70;99.90;;;;;;5070628;28;20115;-63
2022/05/02 03:46:25;;;;;;;20.50;11.85;;;7.70;99.90;;;;;;5070591;28;20021;-63
2022/05/02 03:48:51;;;;;;;18.88;11.32;;;7.60;99.90;;;;;;5071830;28;20104;-63
2022/05/02 03:51:17;;;;;;;23.50;12.35;;;7.60;99.90;;;;;;5071953;28;20049;-63
2022/05/02 03:53:43;;;;;;;18.88;11.15;;;7.60;99.90;;;;;;5071904;28;20077;-63
2022/05/02 03:56:09;;;;;;;22.27;11.95;;;7.50;99.90;;;;;;5072035;28;20024;-61
2022/05/02 03:58:35;;;;;;;20.92;11.75;;;7.50;99.90;;;;;;5071664;28;20029;-64
2022/05/02 04:01:01;;;;;;;22.02;12.98;;;7.50;99.90;;;;;;5071835;28;20111;-62
2022/05/02 04:03:26;;;;;;;22.80;11.75;;;7.40;99.90;;;;;;5070197;28;20029;-62
2022/05/02 04:05:52;;;;;;;18.98;10.75;;;7.40;99.90;;;;;;5071456;28;20031;-62
2022/05/02 04:08:18;;;;;;;19.67;11.02;;;7.40;99.90;;;;;;5070311;28;20037;-62
2022/05/02 04:10:43;;;;;;;19.90;11.05;;;7.40;99.90;;;;;;5070308;28;20025;-63
2022/05/02 04:13:09;;;;;;;19.75;11.82;;;7.40;99.90;;;;;;5070126;28;20055;-63
2022/05/02 04:15:35;;;;;;;18.98;11.50;;;7.40;99.90;;;;;;5071531;28;20009;-63
2022/05/02 04:18:01;;;;;;;18.85;11.65;;;7.40;99.90;;;;;;5071540;28;20025;-64
2022/05/02 04:20:27;;;;;;;21.27;11.43;;;7.40;99.90;;;;;;5071615;28;20384;-61
2022/05/02 04:22:52;;;;;;;23.30;11.93;;;7.40;99.90;;;;;;5071552;28;20104;-63
2022/05/02 04:25:18;;;;;;;19.25;11.50;;;7.40;99.90;;;;;;5070028;28;20021;-64
2022/05/02 04:27:44;;;;;;;19.73;11.50;;;7.40;99.90;;;;;;5069958;28;20059;-64
2022/05/02 04:30:11;;;;;;;22.33;12.88;;;7.40;99.90;;;;;;5071149;28;20028;-64
2022/05/02 04:32:37;;;;;;;27.48;13.82;;;7.40;99.90;;;;;;5071335;28;20561;-64
2022/05/02 04:35:04;;;;;;;22.40;12.93;;;7.40;99.90;;;;;;5071219;28;20392;-64
2022/05/02 04:37:30;;;;;;;22.42;13.85;;;7.40;99.90;;;;;;5070299;28;20025;-63
2022/05/02 04:39:55;;;;;;;22.58;13.52;;;7.40;99.90;;;;;;5069939;28;20036;-64
2022/05/02 04:42:21;;;;;;;25.40;12.82;;;7.60;99.90;;;;;;5075415;28;20090;-64
2022/05/02 04:44:47;;;;;;;21.50;13.32;;;7.60;99.90;;;;;;5075044;28;20032;-64
2022/05/02 04:47:12;;;;;;;24.13;13.05;;;7.70;99.90;;;;;;5075538;28;20090;-63
2022/05/02 04:49:38;;;;;;;20.60;12.40;;;7.70;99.90;;;;;;5074713;28;20086;-64
2022/05/02 04:52:04;;;;;;;23.70;12.70;;;7.90;99.90;;;;;;5075055;28;20024;-63
2022/05/02 04:54:29;;;;;;;26.10;13.85;;;8.00;99.90;;;;;;5074437;28;20020;-61
2022/05/02 04:56:55;;;;;;;26.88;13.02;;;8.10;99.90;;;;;;5075193;28;20020;-65
2022/05/02 04:59:21;;;;;;;24.20;13.85;;;8.20;99.90;;;;;;5074849;28;20025;-64
2022/05/02 05:01:46;;;;;;;27.00;14.45;;;8.30;99.90;;;;;;5073287;28;20025;-63
2022/05/02 05:04:12;;;;;;;21.40;13.10;;;8.40;99.90;;;;;;5074520;28;20103;-63
2022/05/02 05:06:37;;;;;;;23.98;12.95;;;8.50;99.90;;;;;;5074987;28;20016;-63
2022/05/02 05:09:03;;;;;;;23.10;14.38;;;8.50;99.90;;;;;;5074403;28;20039;-64
2022/05/02 05:11:35;;;;;;;23.30;13.75;;;8.50;99.90;;;;;;5074851;28;20118;-64
2022/05/02 05:17:45;;;;;;;23.67;13.18;;;8.50;99.90;;;;;;5073888;28;20023;-64
2022/05/02 05:20:29;;;;;;;26.90;15.07;;;8.60;99.90;;;;;;5072546;28;20396;-64
2022/05/02 05:23:35;;;;;;;25.52;13.48;;;8.70;99.90;;;;;;5073808;28;20095;-63
2022/05/02 05:26:15;;;;;;;24.50;13.25;;;8.70;99.90;;;;;;5074193;28;20090;-63
2022/05/02 05:29:01;;;;;;;22.75;13.05;;;8.80;99.90;;;;;;5073813;28;20484;-62
2022/05/02 05:31:52;;;;;;;24.67;15.27;;;8.90;99.90;;;;;;5072777;28;20111;-63
2022/05/02 05:34:26;;;;;;;23.23;13.45;;;9.00;99.90;;;;;;5073963;28;20066;-65
2022/05/02 05:37:20;;;;;;;19.85;12.43;;;9.00;99.90;;;;;;5073776;28;20043;-64
2022/05/02 05:39:57;;;;;;;22.20;13.93;;;9.10;99.90;;;;;;5073837;28;20017;-65
2022/05/02 05:42:22;;;;;;;21.63;13.38;;;9.20;99.90;;;;;;5073142;28;20031;-61
2022/05/02 05:45:01;;;;;;;20.30;12.80;;;9.30;99.90;;;;;;5073561;28;20024;-64
2022/05/02 05:47:57;;;;;;;23.10;12.65;;;9.30;99.90;;;;;;5072517;28;20404;-63
2022/05/02 05:50:29;;;;;;;21.40;13.18;;;9.40;99.90;;;;;;5073414;28;20031;-64
2022/05/02 05:53:25;;;;;;;20.77;13.07;;;9.40;99.90;;;;;;5072422;28;20107;-63
2022/05/02 05:56:23;;;;;;;24.48;12.85;;;9.50;99.90;;;;;;5072243;28;20041;-63
2022/05/02 05:58:51;;;;;;;;;;;9.60;99.90;;;;;;5074129;28;20024;-64
2022/05/02 06:01:48;;;;;;;22.98;13.60;;;9.60;99.90;;;;;;5073934;28;20265;-61
2022/05/02 06:04:15;;;;;;;19.88;12.55;;;9.70;99.90;;;;;;5073822;28;20094;-63
2022/05/02 06:06:41;;;;;;;22.15;13.80;;;9.80;99.90;;;;;;5073486;28;20055;-63
2022/05/02 06:09:08;;;;;;;23.23;12.73;;;9.90;99.90;;;;;;5071605;28;20024;-62
2022/05/02 06:11:35;;;;;;;21.30;11.52;;;10.00;99.90;;;;;;5073303;28;20031;-64
2022/05/02 06:14:02;;;;;;;20.85;12.30;;;10.10;99.90;;;;;;5074384;28;20608;-63
2022/05/02 06:19:17;;;;;;;26.17;12.43;;;10.40;99.90;;;;;;5073032;28;20108;-64
2022/05/02 06:21:44;;;;;;;22.38;11.82;;;10.60;99.90;;;;;;5073122;28;20269;-63
2022/05/02 06:24:11;;;;;;;20.58;12.18;;;10.70;99.90;;;;;;5072901;28;20092;-63
2022/05/02 06:26:38;;;;;;;21.20;12.20;;;10.70;99.90;;;;;;5073118;28;20029;-64
2022/05/02 06:29:07;;;;;;;18.92;10.80;;;10.80;99.90;;;;;;5073236;28;20081;-61
2022/05/02 06:31:39;;;;;;;20.83;11.05;;;10.90;99.90;;;;;;5073110;28;20078;-64
2022/05/02 06:34:08;;;;;;;22.27;11.43;;;10.90;99.90;;;;;;5073234;28;20012;-63
2022/05/02 06:36:59;;;;;;;19.58;10.82;;;11.00;99.90;;;;;;5071804;28;20035;-62
2022/05/02 06:39:30;;;;;;;20.92;11.80;;;11.00;99.90;;;;;;5071745;28;20510;-65
2022/05/02 06:42:16;;;;;;;21.70;11.57;;;11.20;99.90;;;;;;5073004;28;20067;-65
2022/05/02 06:45:21;;;;;;;23.60;11.50;;;11.20;99.90;;;;;;5072709;28;20093;-64
2022/05/02 06:47:58;;;;;;;23.48;10.82;;;11.20;99.90;;;;;;5072672;28;20032;-64
2022/05/02 06:50:25;;;;;;;17.90;10.55;;;11.20;99.90;;;;;;5072435;28;20451;-64
2022/05/02 06:53:12;;;;;;;20.02;10.73;;;11.20;99.90;;;;;;5072682;28;20028;-65
2022/05/02 06:56:19;;;;;;;21.98;10.43;;;11.20;99.90;;;;;;5072824;28;20020;-67
2022/05/02 06:58:55;;;;;;;17.33;10.20;;;11.20;99.90;;;;;;5072155;28;20024;-62
2022/05/02 07:01:24;;;;;;;18.20;10.77;;;11.20;99.90;;;;;;5072709;28;20060;-63
2022/05/02 07:04:13;;;;;;;20.23;11.57;;;11.20;99.90;;;;;;5071902;28;20024;-64
2022/05/02 07:07:01;;;;;;;19.20;10.70;;;11.30;99.90;;;;;;5072616;28;20025;-63
2022/05/02 07:09:45;;;;;;;21.45;11.13;;;11.50;99.90;;;;;;5071979;28;20035;-62
2022/05/02 07:12:11;;;;;;;19.88;10.02;;;11.60;99.90;;;;;;5071970;28;20028;-63
2022/05/02 07:15:05;;;;;;;18.33;10.05;;;11.80;99.90;;;;;;5071753;28;20036;-61
2022/05/02 07:17:42;;;;;;;19.25;9.82;;;11.90;99.90;;;;;;5071831;28;20108;-63
2022/05/02 07:20:22;;;;;;;20.17;10.57;;;12.00;99.90;;;;;;5071728;28;20021;-61
2022/05/02 07:23:00;;;;;;;19.77;10.70;;;12.10;99.90;;;;;;5071977;28;20059;-62
2022/05/02 07:25:28;;;;;;;21.35;10.82;;;12.20;99.90;;;;;;5072112;28;20029;-64
2022/05/02 07:28:09;;;;;;;20.03;10.03;;;12.40;99.90;;;;;;5072581;28;20035;-60
2022/05/02 07:30:34;;;;;;;20.10;9.90;;;12.50;99.90;;;;;;5071849;28;20095;-62
2022/05/02 07:33:03;;;;;;;19.60;10.00;;;12.70;99.90;;;;;;5072206;28;20137;-63
2022/05/02 07:35:30;;;;;;;20.02;10.73;;;12.80;99.90;;;;;;5070515;28;20024;-62
2022/05/02 07:37:58;;;;;;;18.60;10.80;;;12.90;99.90;;;;;;5071942;28;20036;-60
2022/05/02 07:40:25;;;;;;;20.40;11.30;;;13.10;99.90;;;;;;5071794;28;20036;-63
2022/05/02 07:42:53;;;;;;;17.65;10.38;;;13.20;99.90;;;;;;5071040;28;20496;-63
2022/05/02 07:45:31;;;;;;;18.88;10.25;;;13.20;99.90;;;;;;5071225;28;20043;-64
2022/05/02 07:48:01;;;;;;;18.90;10.85;;;13.20;99.90;;;;;;5071905;28;20393;-63
2022/05/02 07:50:27;;;;;;;20.13;11.43;;;13.30;99.90;;;;;;5071689;28;20024;-64
2022/05/02 07:52:55;;;;;;;19.50;11.43;;;;;;;;;;5071617;28;20028;-63
2022/05/02 07:55:22;;;;;;;18.60;11.10;;;;;;;;;;5071563;28;20518;-61
2022/05/02 07:57:49;;;;;;;19.02;11.40;;;;;;;;;;5071486;28;20029;-64
2022/05/02 08:00:16;;;;;;;20.95;11.25;;;13.50;99.90;;;;;;5071876;28;20458;-62
2022/05/02 08:02:42;;;;;;;18.67;11.30;;;14.20;99.90;;;;;;5072027;28;20078;-62
2022/05/02 08:05:09;;;;;;;19.38;11.40;;;14.20;99.90;;;;;;5070623;28;20115;-61
2022/05/02 08:07:45;;;;;;;20.10;11.15;;;14.20;99.90;;;;;;5071550;28;20059;-64
2022/05/02 08:10:23;;;;;;;17.63;10.73;;;;;;;;;;5071360;28;20017;-62
2022/05/02 08:12:49;;;;;;;18.50;10.77;;;;;;;;;;5071657;28;20388;-62
2022/05/02 08:15:20;;;;;;;17.35;11.30;;;;;;;;;;5071939;28;20035;-62
2022/05/02 08:17:49;;;;;;;19.40;11.20;;;;;;;;;;5076150;28;20036;-61
2022/05/02 08:20:39;;;;;;;18.83;11.65;;;;;;;;;;5074475;28;20024;-57
2022/05/02 08:29:05;;;;;;;20.27;11.57;;;14.30;99.90;;;;;;5075491;28;20455;-56
2022/05/02 08:31:55;;;;;;;18.15;11.23;;;15.00;98.90;;;;;;5075008;28;20328;-53
2022/05/02 08:34:30;;;;;;;19.02;12.35;;;15.00;99.20;;;;;;5075283;28;20033;-50
2022/05/02 08:37:12;;;;;;;18.33;11.25;;;14.90;99.30;;;;;;5081521;28;20024;-50
2022/05/02 08:40:07;;;;;;;19.83;11.27;;;15.00;98.60;;;;;;4729399;28;10001412;-56
2022/05/02 08:42:50;;;;;;;21.40;11.68;;;15.10;98.80;;;;;;5066843;28;20031;-57
2022/05/02 08:45:45;;;;;;;19.20;11.77;;;15.20;98.60;;;;;;5060398;28;20020;-52
2022/05/02 08:48:47;;;;;;;19.42;11.77;;;15.20;98.50;;;;;;5042974;28;20072;-56
2022/05/02 08:51:31;;;;;;;19.10;12.68;;;15.40;98.70;;;;;;5050589;28;20178;-52
2022/05/02 08:54:42;;;;;;;18.58;11.88;;;15.60;98.20;;;;;;5051574;28;20044;-56
2022/05/02 08:57:13;;;;;;;19.38;12.18;;;15.90;98.50;;;;;;5052608;28;20032;-55
2022/05/02 08:59:57;;;;;;;19.55;12.07;;;15.90;97.50;;;;;;5070654;28;20012;-53
2022/05/02 09:02:47;;;;;;;18.77;12.02;;;15.90;97.30;;;;;;5070538;28;20024;-52
2022/05/02 09:05:34;;;;;;;24.77;19.05;;;16.00;97.20;;;;;;5072109;28;20507;-65
2022/05/02 09:08:37;;;;;;;18.52;11.88;;;15.90;97.60;;;;;;5072684;28;20039;-67
2022/05/02 09:11:40;;;;;;;22.75;11.77;;;16.10;97.10;;;;;;5070715;28;20388;-65
2022/05/02 09:14:24;;;;;;;19.23;12.32;;;;;;;;;;5044215;28;20033;-65
2022/05/02 09:16:59;;;;;;;19.30;12.43;;;16.40;97.10;;;;;;5051733;28;20432;-66
2022/05/02 09:19:47;;;;;;;20.83;12.00;;;16.60;96.10;;;;;;5051882;28;20021;-66
2022/05/02 09:22:25;;;;;;;18.47;12.03;;;;;;;;;;5054993;28;20043;-66
2022/05/02 09:25:24;;;;;;;18.20;11.95;;;;;;;;;;5060600;28;20107;-67
2022/05/02 09:28:02;;;;;;;19.85;11.80;;;;;;;;;;5047587;28;20039;-66
2022/05/02 09:30:34;;;;;;;24.48;13.18;;;;;;;;;;5070288;28;20131;-67
2022/05/02 09:33:04;;;;;;;18.92;11.55;;;16.80;96.20;;;;;;5069955;28;20036;-67
2022/05/02 09:35:31;;;;;;;19.33;11.75;;;18.10;94.50;;;;;;5069779;28;20044;-65
2022/05/02 09:38:27;;;;;;;19.23;11.93;;;18.10;93.00;;;;;;5092158;28;20476;-66
2022/05/02 09:41:27;;;;;;;21.88;12.05;;;18.10;93.10;;;;;;5090834;28;20388;-66
2022/05/02 09:50:55;;;;;;;19.02;12.45;;;17.80;93.20;;;;;;5073437;28;20035;-67
2022/05/02 09:53:44;;;;;;;20.13;12.25;;;17.90;92.90;;;;;;5073846;28;20020;-66
2022/05/02 09:56:38;;;;;;;18.55;12.05;;;17.80;92.10;;;;;;5073805;28;20095;-66
2022/05/02 09:59:07;;;;;;;21.25;12.68;;;18.00;91.90;;;;;;5072340;28;20051;-66
2022/05/02 10:01:34;;;;;;;19.65;12.77;;;18.20;91.60;;;;;;5073732;28;20394;-67
2022/05/02 10:04:18;;;;;;;20.23;12.52;;;18.30;92.10;;;;;;5072352;28;20429;-66
2022/05/02 10:06:47;;;;;;;23.30;12.02;;;18.50;92.30;;;;;;5073445;28;20039;-66
2022/05/02 10:09:24;;;;;;;;;;;18.60;91.80;;;;;;5073732;28;20020;-65
2022/05/02 10:12:27;;;;;;;20.73;11.43;;;18.70;91.10;;;;;;5071829;28;19929;-66
2022/05/02 10:15:03;;;;;;;38.08;30.48;;;18.50;90.90;;;;;;5072528;28;20028;-61
2022/05/02 10:17:58;;;;;;;18.88;12.65;;;18.20;91.30;;;;;;5054021;28;20049;-63
2022/05/02 10:20:54;;;;;;;20.88;12.20;;;18.20;91.50;;;;;;5052182;28;20052;-65
2022/05/02 10:23:30;;;;;;;20.27;12.63;;;18.50;91.40;;;;;;5030480;28;20075;-65
2022/05/02 10:26:14;;;;;;;20.13;12.93;;;18.20;91.10;;;;;;5052028;28;20024;-66
2022/05/02 10:29:14;;;;;;;20.48;13.10;;;18.40;91.10;;;;;;5051585;28;20025;-66
2022/05/02 10:31:41;;;;;;;20.67;12.27;;;18.00;90.60;;;;;;5053178;28;20096;-64
2022/05/02 10:34:12;;;;;;;18.77;12.47;;;18.40;90.90;;;;;;5051763;28;20032;-65
2022/05/02 10:36:40;;;;;;;21.25;11.60;;;18.50;90.40;;;;;;5053412;28;20021;-65
2022/05/02 10:39:19;;;;;;;19.35;12.25;;;18.50;91.20;;;;;;5052566;28;20094;-62
2022/05/02 10:41:46;;;;;;;24.75;12.38;;;;;;;;;;5052568;28;20056;-63
2022/05/02 10:44:16;;;;;;;19.00;12.10;;;18.90;90.80;;;;;;5051426;28;20083;-64
2022/05/02 10:46:46;;;;;;;22.50;13.30;;;19.30;90.60;;;;;;5062744;28;20031;-64
2022/05/02 10:49:39;;;;;;;23.13;12.60;;;19.40;90.10;;;;;;5072737;28;20112;-64
2022/05/02 10:52:16;;;;;;;21.98;12.60;;;18.80;88.80;;;;;;5072353;28;20024;-64
2022/05/02 10:54:55;;;;;;;19.52;12.35;;;19.30;89.30;;;;;;5072589;28;20020;-64
2022/05/02 10:57:31;;;;;;;20.02;13.23;;;19.80;89.60;;;;;;5072881;28;20020;-64
2022/05/02 11:00:06;;;;;;;21.30;12.52;;;20.30;89.50;;;;;;5072677;28;20028;-64
2022/05/02 11:02:59;;;;;;;19.38;12.38;;;20.70;89.10;;;;;;5072460;28;20104;-64
2022/05/02 11:05:27;;;;;;;19.30;13.02;;;20.70;85.30;;;;;;5072835;28;20107;-65
2022/05/02 11:07:58;;;;;;;19.80;12.60;;;20.60;84.20;;;;;;5072762;28;20036;-63
2022/05/02 11:10:37;;;;;;;22.77;14.00;;;21.50;83.90;;;;;;5072173;28;20086;-63
2022/05/02 11:13:23;;;;;;;20.88;13.35;;;21.50;83.50;;;;;;5071040;28;20021;-65
2022/05/02 11:16:27;;;;;;;19.08;13.00;;;20.70;83.10;;;;;;5072312;28;20032;-65
2022/05/02 11:22:30;;;;;;;26.75;19.90;;;20.20;84.30;;;;;;5092556;28;20459;-66
2022/05/02 11:25:06;;;;;;;22.88;13.68;;;20.10;83.90;;;;;;5092766;28;20116;-65
2022/05/02 11:27:54;;;;;;;20.17;13.50;;;21.70;81.80;;;;;;5093166;28;20024;-66
2022/05/02 11:30:28;;;;;;;21.05;14.50;;;21.60;80.60;;;;;;5092709;28;20025;-64
2022/05/02 11:32:54;;;;;;;18.20;13.38;;;21.80;78.70;;;;;;5092470;28;20459;-65
2022/05/02 11:35:31;;;;;;;20.38;12.73;;;23.30;78.50;;;;;;5091139;28;20454;-66
2022/05/02 11:38:21;;;;;;;17.95;13.40;;;24.60;75.00;;;;;;4710588;28;10000117;-66
2022/05/02 11:40:51;;;;;;;19.20;13.75;;;24.50;72.70;;;;;;5051323;28;20025;-66
2022/05/02 11:43:22;;;;;;;19.77;13.00;;;24.20;73.60;;;;;;5066575;28;20484;-66
2022/05/02 11:45:55;;;;;;;20.30;12.63;;;24.10;72.60;;;;;;5069438;28;20112;-67
2022/05/02 11:48:21;;;;;;;20.70;13.82;;;23.30;73.70;;;;;;5049180;28;20116;-64
2022/05/02 11:50:48;;;;;;;20.95;13.18;;;22.80;73.30;;;;;;5076995;28;20520;-64
2022/05/02 11:53:16;;;;;;;20.52;13.75;;;22.50;72.70;;;;;;5091861;28;20080;-65
2022/05/02 11:55:44;;;;;;;23.73;14.05;;;23.00;73.20;;;;;;5092077;28;20114;-64
2022/05/02 11:58:25;;;;;;;18.77;13.65;;;24.10;70.20;;;;;;5091937;28;20032;-64
2022/05/02 12:01:10;;;;;;;19.13;13.60;;;;;;;;;;5090802;28;20388;-63
2022/05/02 12:04:00;;;;;;;18.70;13.82;;;25.80;69.40;;;;;;5090728;28;20138;-65
2022/05/02 12:06:59;;;;;;;20.92;14.95;;;28.70;63.90;;;;;;5091588;28;20039;-65
2022/05/02 12:09:24;;;;;;;19.58;14.60;;;29.50;60.70;;;;;;5091450;28;20020;-65
2022/05/02 12:11:55;;;;;;;20.13;15.43;;;29.30;59.20;;;;;;5091371;28;20031;-65
2022/05/02 12:14:21;;;;;;;18.38;14.18;;;28.90;58.60;;;;;;5086841;22;20052;-63
2022/05/02 12:17:09;;;;;;;17.95;13.82;;;27.80;58.40;;;;;;5050189;28;20041;-61
2022/05/02 12:19:36;;;;;;;22.40;14.65;;;;;;;;;;5047426;28;20032;-66
2022/05/02 12:22:25;;;;;;;21.92;15.05;;;26.20;59.20;;;;;;5048694;28;20152;-58
2022/05/02 12:24:53;;;;;;;19.35;13.80;;;23.60;63.20;;;;;;5049248;28;20021;-56
2022/05/02 12:27:21;;;;;;;18.55;14.30;;;22.90;63.90;;;;;;5050013;28;20033;-57
2022/05/02 12:30:01;;;;;;;20.42;13.35;;;22.90;64.90;;;;;;5048674;28;20055;-57
2022/05/02 12:32:30;;;;;;;28.75;14.23;;;23.10;65.50;;;;;;5049380;28;20024;-55
2022/05/02 12:35:02;;;;;;;20.67;14.15;;;22.90;65.40;;;;;;5049582;28;20017;-52
2022/05/02 12:37:32;;;;;;;21.70;14.18;;;23.20;65.60;;;;;;5049555;28;20483;-56
2022/05/02 12:40:07;;;;;;;20.90;14.13;;;23.30;64.50;;;;;;5049631;28;20443;-60
2022/05/02 12:42:47;;;;;;;19.00;13.45;;;23.20;66.00;;;;;;5049659;28;20342;-58
2022/05/02 12:45:16;;;;;;;20.75;13.85;;;22.90;66.70;;;;;;5048381;28;20505;-54
2022/05/02 12:47:44;;;;;;;19.77;13.55;;;22.80;65.00;;;;;;5048096;28;20036;-58
2022/05/02 12:50:20;;;;;;;21.95;13.85;;;22.80;65.70;;;;;;5049389;28;20092;-59
2022/05/02 12:52:47;;;;;;;20.73;14.13;;;22.50;65.20;;;;;;5049486;28;20082;-57
2022/05/02 12:55:14;;;;;;;20.67;13.70;;;22.70;66.20;;;;;;5049375;28;20393;-57
2022/05/02 13:00:39;;;;;;;19.33;13.70;;;26.40;61.50;;;;;;5049129;28;20120;-55
2022/05/02 13:03:11;;;;;;;24.83;15.10;;;27.50;59.20;;;;;;5052258;28;20017;-60
2022/05/02 13:05:49;;;;;;;17.90;13.73;;;29.30;58.70;;;;;;5053062;28;20062;-56
2022/05/02 13:08:19;;;;;;;20.58;13.55;;;30.00;56.90;;;;;;5052971;28;20077;-59
2022/05/02 13:10:49;;;;;;;18.27;13.63;;;29.80;55.30;;;;;;5053312;28;20032;-59
2022/05/02 13:13:17;;;;;;;19.90;13.82;;;30.80;54.90;;;;;;5052991;28;20029;-59
2022/05/02 13:15:44;;;;;;;20.40;14.20;;;30.20;55.50;;;;;;5051774;28;20028;-60
2022/05/02 13:18:12;;;;;;;18.45;13.75;;;31.00;53.80;;;;;;5053187;28;20057;-58
2022/05/02 13:20:39;;;;;;;20.13;13.93;;;30.20;53.90;;;;;;5052574;28;20028;-55
2022/05/02 13:23:13;;;;;;;21.42;13.55;;;29.90;54.30;;;;;;5052656;28;20021;-59
2022/05/02 13:26:05;;;;;;;19.65;14.63;;;28.40;53.40;;;;;;5053022;28;20174;-58
2022/05/02 13:28:40;;;;;;;19.70;14.20;;;27.70;55.20;;;;;;5052957;28;20025;-57
2022/05/02 13:31:22;;;;;;;19.77;13.80;;;28.20;55.20;;;;;;5052790;28;20013;-58
2022/05/02 13:33:53;;;;;;;18.95;13.80;;;29.10;54.10;;;;;;5052546;28;20044;-58
2022/05/02 13:36:20;;;;;;;21.60;14.13;;;29.70;53.70;;;;;;5052515;28;20024;-56